Time;durP1;ratioP1;P1;durP2;ratioP2;P2;SDS_P1;SDS_P2;PMS_P1;PMS_P2;Temp;Humidity;BMP_temperature;BMP_pressure;BME280_temperature;BME280_humidity;BME280_pressure;Samples;Min_cycle;Max_cycle;Signal;HPM_P1;HPM_P2
2024/04/13 00:00:36;;;;;;;5.43;4.90;;;;;;;9.51;76.64;101650.28;2726002;26;20137;-76
2024/04/13 00:01:50;;;;;;;5.72;5.07;;;;;;;9.49;76.60;101649.41;2731338;26;20011;-76
2024/04/13 00:03:03;;;;;;;4.97;4.45;;;;;;;9.48;76.93;101647.66;2731011;26;20042;-76
2024/04/13 00:04:16;;;;;;;6.82;4.40;;;;;;;9.49;77.06;101649.41;2733867;26;20075;-76
2024/04/13 00:05:29;;;;;;;5.82;4.28;;;;;;;9.49;77.34;101646.78;2718689;26;20383;-75
2024/04/13 00:06:43;;;;;;;7.03;4.40;;;;;;;9.48;77.29;101646.78;2734047;26;20605;-76
2024/04/13 00:07:56;;;;;;;7.90;5.45;;;;;;;9.46;77.09;101644.16;2729464;26;20019;-76
2024/04/13 00:09:09;;;;;;;12.77;4.88;;;;;;;9.43;76.85;101641.50;2707181;26;20003;-76
2024/04/13 00:10:24;;;;;;;4.78;4.30;;;;;;;9.41;76.90;101639.75;2718417;26;19995;-75
2024/04/13 00:11:37;;;;;;;8.30;4.30;;;;;;;9.39;77.07;101642.31;2727324;26;19999;-74
2024/04/13 00:12:51;;;;;;;7.25;4.75;;;;;;;9.39;77.18;101637.97;2732936;26;20075;-76
2024/04/13 00:14:04;;;;;;;5.78;4.13;;;;;;;9.38;77.17;101640.59;2727679;26;20007;-75
2024/04/13 00:15:18;;;;;;;4.78;3.80;;;;;;;9.36;77.20;101643.16;2728476;26;20000;-76
2024/04/13 00:16:31;;;;;;;8.23;4.80;;;;;;;9.37;77.12;101636.22;2730747;26;20072;-76
2024/04/13 00:17:44;;;;;;;5.00;4.28;;;;;;;9.35;77.17;101632.75;2718499;26;20089;-76
2024/04/13 00:18:57;;;;;;;9.13;4.03;;;;;;;9.33;77.00;101631.84;2727542;26;19991;-76
2024/04/13 00:20:11;;;;;;;5.63;5.05;;;;;;;9.32;77.19;101636.19;2724501;26;20079;-76
2024/04/13 00:21:24;;;;;;;7.35;4.28;;;;;;;9.30;76.93;101630.06;2732450;26;19992;-76
2024/04/13 00:22:37;;;;;;;5.07;4.57;;;;;;;9.29;77.23;101630.03;2725765;26;20109;-76
2024/04/13 00:23:52;;;;;;;5.63;4.30;;;;;;;9.28;76.97;101633.50;2726135;26;20329;-76
2024/04/13 00:25:06;;;;;;;7.38;4.80;;;;;;;9.27;77.09;101631.78;2729489;26;19999;-76
2024/04/13 00:26:19;;;;;;;5.72;5.00;;;;;;;9.22;76.98;101628.25;2727362;26;19999;-76
2024/04/13 00:27:33;;;;;;;4.68;4.20;;;;;;;9.18;77.30;101628.16;2729768;26;20324;-74
2024/04/13 00:28:46;;;;;;;5.28;3.72;;;;;;;9.15;77.50;101628.13;2728382;26;20004;-76
2024/04/13 00:29:59;;;;;;;8.07;4.55;;;;;;;9.14;77.20;101625.53;2727674;26;20092;-75
2024/04/13 00:31:12;;;;;;;5.70;5.20;;;;;;;9.11;77.35;101628.97;2730700;26;19999;-76
2024/04/13 00:32:25;;;;;;;6.85;4.18;;;;;;;9.12;77.22;101628.09;2729186;26;19995;-76
2024/04/13 00:33:39;;;;;;;4.35;3.95;;;;;;;9.11;77.49;101628.06;2724559;26;20007;-75
2024/04/13 00:34:52;;;;;;;4.90;3.67;;;;;;;9.08;77.27;101626.31;2726094;26;20067;-76
2024/04/13 00:36:05;;;;;;;6.85;5.72;;;;;;;9.06;77.31;101627.13;2728952;26;19999;-75
2024/04/13 00:37:19;;;;;;;7.68;4.90;;;;;;;9.05;77.52;101626.28;2728670;26;20010;-75
2024/04/13 00:38:32;;;;;;;27.30;5.85;;;;;;;9.04;77.43;101624.53;2730137;26;19999;-76
2024/04/13 00:39:45;;;;;;;7.47;3.90;;;;;;;9.04;77.16;101626.28;2729926;26;20464;-76
2024/04/13 00:40:58;;;;;;;7.43;4.90;;;;;;;9.01;77.09;101626.19;2730997;26;20429;-76
2024/04/13 00:42:13;;;;;;;10.43;4.30;;;;;;;8.98;77.22;101629.63;2733345;26;22702;-75
2024/04/13 00:43:26;;;;;;;6.03;4.43;;;;;;;8.96;77.42;101626.16;2735051;26;19995;-76
2024/04/13 00:44:42;;;;;;;7.20;5.18;;;;;;;8.96;77.33;101628.78;2730887;26;20373;-74
2024/04/13 00:45:55;;;;;;;8.25;4.95;;;;;;;8.94;77.18;101628.72;2729687;26;20006;-76
2024/04/13 00:47:09;;;;;;;6.03;4.88;;;;;;;8.92;77.15;101624.34;2733178;26;20003;-76
2024/04/13 00:48:24;;;;;;;7.22;4.35;;;;;;;8.89;77.14;101627.78;2730206;26;20357;-76
2024/04/13 00:49:38;;;;;;;8.18;4.70;;;;;;;8.87;77.37;101628.63;2713983;26;20006;-75
2024/04/13 00:50:58;;;;;;;4.50;4.10;;;;;;;8.86;77.05;101634.69;2701919;26;20007;-76
2024/04/13 00:52:11;;;;;;;7.22;4.25;;;;;;;8.86;77.29;101630.34;2717741;26;20476;-75
2024/04/13 00:53:26;;;;;;;8.38;4.93;;;;;;;8.88;77.13;101627.75;2723531;26;19998;-75
2024/04/13 00:54:39;;;;;;;6.22;4.88;;;;;;;8.89;77.44;101619.13;2720185;26;20065;-75
2024/04/13 00:55:53;;;;;;;12.52;4.93;;;;;;;8.91;77.53;101623.50;2712680;26;20463;-75
2024/04/13 00:57:08;;;;;;;5.80;5.28;;;;;;;8.92;77.45;101611.34;2711814;26;19992;-75
2024/04/13 00:58:26;;;;;;;8.60;4.50;;;;;;;8.93;77.51;101616.59;2718786;26;20444;-75
2024/04/13 00:59:40;;;;;;;5.55;4.32;;;;;;;8.94;77.48;101614.84;2723550;26;20010;-75
2024/04/13 01:00:56;;;;;;;9.73;4.45;;;;;;;8.94;77.49;101617.44;2719479;26;19995;-75
2024/04/13 01:02:13;;;;;;;5.28;4.38;;;;;;;8.93;77.55;101615.69;2702464;26;20389;-76
2024/04/13 01:03:26;;;;;;;4.88;4.35;;;;;;;8.92;77.68;101612.22;2724505;26;20014;-75
2024/04/13 01:04:39;;;;;;;6.82;4.28;;;;;;;8.93;77.34;101613.06;2726955;26;20063;-76
2024/04/13 01:05:53;;;;;;;8.35;4.80;;;;;;;8.92;77.63;101611.34;2737520;26;20006;-75
2024/04/13 01:07:07;;;;;;;10.77;6.93;;;;;;;8.91;77.44;101612.22;2719377;26;20010;-76
2024/04/13 01:08:20;;;;;;;6.97;4.75;;;;;;;8.89;77.54;101612.19;2722684;26;19996;-75
2024/04/13 01:09:36;;;;;;;7.00;5.28;;;;;;;8.89;77.44;101616.50;2725557;26;19995;-75
2024/04/13 01:10:50;;;;;;;6.93;4.75;;;;;;;8.88;77.70;101617.34;2727283;26;19996;-76
2024/04/13 01:12:06;;;;;;;5.38;3.97;;;;;;;8.83;77.48;101613.81;2736005;26;20058;-76
2024/04/13 01:13:19;;;;;;;10.05;4.03;;;;;;;8.78;77.46;101625.88;2724307;26;20471;-75
2024/04/13 01:14:35;;;;;;;4.93;4.18;;;;;;;8.72;77.84;101622.38;2729808;26;20014;-76
2024/04/13 01:15:48;;;;;;;6.68;4.45;;;;;;;8.71;77.70;101614.53;2738939;26;20514;-75
2024/04/13 01:17:02;;;;;;;8.23;5.70;;;;;;;8.71;77.82;101619.72;2713919;26;20008;-76
2024/04/13 01:18:15;;;;;;;6.25;5.15;;;;;;;8.72;77.75;101619.75;2724773;26;19995;-76
2024/04/13 01:19:28;;;;;;;5.72;4.38;;;;;;;8.72;77.63;101619.75;2724429;26;20043;-75
2024/04/13 01:20:42;;;;;;;7.32;4.60;;;;;;;8.72;77.83;101622.38;2739983;26;20071;-76
2024/04/13 01:21:55;;;;;;;7.95;4.47;;;;;;;8.72;77.69;101618.88;2726050;26;20471;-75
2024/04/13 01:23:14;;;;;;;8.75;4.45;;;;;;;8.73;77.75;101620.63;2724507;26;20289;-75
2024/04/13 01:24:28;;;;;;;9.52;4.38;;;;;;;8.72;77.74;101632.78;2724907;26;19995;-76
2024/04/13 01:25:42;;;;;;;6.53;4.53;;;;;;;8.71;77.77;101633.59;2725281;26;20488;-75
2024/04/13 01:26:57;;;;;;;5.57;4.45;;;;;;;8.72;77.98;101634.47;2724866;26;19992;-76
2024/04/13 01:28:10;;;;;;;6.18;4.55;;;;;;;8.71;78.17;101628.41;2731930;26;20079;-75
2024/04/13 01:29:24;;;;;;;5.20;4.50;;;;;;;8.71;78.16;101631.00;2732332;26;20000;-75
2024/04/13 01:30:39;;;;;;;5.05;4.07;;;;;;;8.72;77.56;101637.09;2726026;26;20094;-76
2024/04/13 01:31:52;;;;;;;4.95;4.43;;;;;;;8.67;77.75;101629.22;2725398;26;19995;-76
2024/04/13 01:33:05;;;;;;;5.00;4.07;;;;;;;8.65;78.01;101620.53;2725845;26;20014;-76
2024/04/13 01:34:19;;;;;;;5.32;4.90;;;;;;;8.64;77.59;101634.38;2725487;26;20356;-75
2024/04/13 01:35:32;;;;;;;5.57;4.70;;;;;;;8.61;77.69;101628.25;2723905;26;19999;-76
2024/04/13 01:36:45;;;;;;;5.80;4.13;;;;;;;8.58;77.83;101630.81;2714236;26;20478;-76
2024/04/13 01:37:58;;;;;;;7.43;4.22;;;;;;;8.55;77.70;101633.38;2738458;26;19994;-76
2024/04/13 01:39:12;;;;;;;7.28;4.97;;;;;;;8.56;77.83;101633.38;2724889;26;20340;-76
2024/04/13 01:40:25;;;;;;;8.07;4.22;;;;;;;8.56;78.25;101632.50;2736362;26;20006;-76
2024/04/13 01:41:43;;;;;;;9.40;5.72;;;;;;;8.56;77.94;101629.91;2727965;26;19996;-77
2024/04/13 01:42:56;;;;;;;5.35;4.47;;;;;;;8.52;78.04;101629.00;2724745;26;20003;-76
2024/04/13 01:44:10;;;;;;;6.15;4.47;;;;;;;8.50;78.18;101635.91;2719844;26;19999;-76
2024/04/13 01:45:23;;;;;;;7.10;4.47;;;;;;;8.49;78.20;101632.44;2736318;26;20355;-75
2024/04/13 01:46:36;;;;;;;5.97;3.97;;;;;;;8.48;78.03;101632.38;2725553;26;20110;-76
2024/04/13 01:47:49;;;;;;;5.00;4.50;;;;;;;8.48;77.99;101635.84;2739382;26;20009;-76
2024/04/13 01:49:04;;;;;;;5.68;5.18;;;;;;;8.50;78.27;101635.91;2729961;26;20006;-75
2024/04/13 01:50:17;;;;;;;5.50;4.93;;;;;;;8.48;78.11;101630.66;2721933;26;20083;-76
2024/04/13 01:51:32;;;;;;;5.35;4.30;;;;;;;8.48;78.33;101632.38;2737003;26;20319;-74
2024/04/13 01:52:45;;;;;;;6.60;4.78;;;;;;;8.45;78.47;101630.59;2727902;26;19999;-75
2024/04/13 01:53:59;;;;;;;8.50;5.05;;;;;;;8.42;78.35;101633.16;2738454;26;20013;-76
2024/04/13 01:55:12;;;;;;;5.90;4.20;;;;;;;8.41;78.12;101633.13;2733696;26;20336;-76
2024/04/13 01:56:26;;;;;;;4.78;4.38;;;;;;;8.40;78.57;101639.19;2732234;26;20064;-76
2024/04/13 01:57:39;;;;;;;6.40;4.22;;;;;;;8.37;77.93;101629.59;2738464;26;20015;-75
2024/04/13 01:58:52;;;;;;;5.78;4.70;;;;;;;8.34;78.40;101629.53;2727314;26;19996;-76
2024/04/13 02:00:06;;;;;;;6.45;5.13;;;;;;;8.30;78.31;101625.13;2724162;26;20065;-75
2024/04/13 02:01:20;;;;;;;7.15;4.32;;;;;;;8.27;78.27;101630.28;2722729;26;20072;-76
2024/04/13 02:02:33;;;;;;;7.55;4.88;;;;;;;8.25;78.34;101630.25;2717393;26;20059;-75
2024/04/13 02:03:49;;;;;;;5.22;4.68;;;;;;;8.25;78.26;101626.78;2725246;26;19999;-77
2024/04/13 02:05:03;;;;;;;5.88;4.82;;;;;;;8.25;78.31;101629.38;2737092;26;20013;-75
2024/04/13 02:06:16;;;;;;;5.53;4.22;;;;;;;8.26;78.59;101631.13;2703544;26;20030;-76
2024/04/13 02:07:29;;;;;;;9.02;4.50;;;;;;;8.28;78.58;101632.03;2717869;26;20484;-77
2024/04/13 02:08:42;;;;;;;8.05;4.35;;;;;;;8.30;78.67;101631.19;2739691;26;20435;-75
2024/04/13 02:09:56;;;;;;;5.30;4.80;;;;;;;8.28;78.53;101622.50;2729271;26;20018;-77
2024/04/13 02:11:10;;;;;;;4.70;4.20;;;;;;;8.28;78.71;101625.09;2736708;26;20000;-75
2024/04/13 02:12:23;;;;;;;5.80;4.85;;;;;;;8.26;78.57;101620.72;2734198;26;20011;-75
2024/04/13 02:13:37;;;;;;;6.20;5.60;;;;;;;8.23;78.58;101618.94;2729324;26;20088;-77
2024/04/13 02:14:50;;;;;;;6.40;4.88;;;;;;;8.22;78.81;101613.72;2726098;26;20011;-76
2024/04/13 02:16:04;;;;;;;5.22;4.50;;;;;;;8.21;78.65;101607.66;2737356;26;20004;-74
2024/04/13 02:17:17;;;;;;;6.18;4.45;;;;;;;8.19;78.77;101618.88;2733299;26;20006;-75
2024/04/13 02:18:30;;;;;;;6.47;5.13;;;;;;;8.16;78.62;101614.50;2730417;26;20357;-76
2024/04/13 02:19:44;;;;;;;7.10;4.28;;;;;;;8.15;78.68;101620.53;2720378;26;20004;-76
2024/04/13 02:20:57;;;;;;;5.95;5.35;;;;;;;8.13;78.60;101614.47;2716678;26;20015;-76
2024/04/13 02:22:15;;;;;;;6.13;4.88;;;;;;;8.13;78.83;101613.56;2735432;26;20483;-76
2024/04/13 02:23:28;;;;;;;10.65;5.40;;;;;;;8.11;78.93;101616.16;2735318;26;19998;-75
2024/04/13 02:24:43;;;;;;;9.85;5.75;;;;;;;8.12;78.66;101617.03;2727644;26;20010;-75
2024/04/13 02:25:58;;;;;;;3.97;3.58;;;;;;;8.11;78.96;101618.75;2739936;26;20094;-76
2024/04/13 02:27:11;;;;;;;6.57;5.20;;;;;;;8.10;79.08;101611.78;2735984;26;20007;-74
2024/04/13 02:28:24;;;;;;;5.30;4.80;;;;;;;8.09;78.83;101613.50;2735156;26;20006;-76
2024/04/13 02:29:43;;;;;;;5.10;4.55;;;;;;;8.11;79.16;101610.97;2729476;26;19996;-75
2024/04/13 02:30:56;;;;;;;5.18;4.40;;;;;;;8.10;78.80;101609.19;2728485;26;20012;-76
2024/04/13 02:32:10;;;;;;;8.20;5.13;;;;;;;8.12;79.09;101610.09;2736086;26;19999;-74
2024/04/13 02:33:23;;;;;;;7.68;5.18;;;;;;;8.12;79.07;101611.81;2735199;26;19995;-76
2024/04/13 02:34:36;;;;;;;8.93;5.72;;;;;;;8.13;79.04;101608.38;2729295;26;19997;-77
2024/04/13 02:36:00;;;;;;;8.52;4.18;;;;;;;8.13;79.06;101604.06;2739410;26;20455;-76
2024/04/13 02:37:13;;;;;;;12.05;4.65;;;;;;;8.11;78.88;101605.75;2731622;26;20068;-77
2024/04/13 02:38:26;;;;;;;5.25;4.75;;;;;;;8.08;79.15;101613.50;2731772;26;20003;-76
2024/04/13 02:39:40;;;;;;;5.78;5.25;;;;;;;8.07;78.63;101610.00;2737906;26;20082;-76
2024/04/13 02:40:57;;;;;;;5.45;4.72;;;;;;;8.06;78.90;101610.00;2727377;26;20000;-77
2024/04/13 02:42:10;;;;;;;7.93;4.60;;;;;;;8.05;79.08;101616.03;2737728;26;20018;-76
2024/04/13 02:43:24;;;;;;;12.75;5.30;;;;;;;8.03;78.97;101612.56;2724190;26;20003;-75
2024/04/13 02:44:37;;;;;;;5.22;4.72;;;;;;;8.02;78.95;101616.84;2738857;26;20002;-77
2024/04/13 02:45:51;;;;;;;4.43;4.05;;;;;;;8.01;78.76;101614.25;2728274;26;20354;-76
2024/04/13 02:47:04;;;;;;;5.20;4.20;;;;;;;8.00;79.05;101617.69;2738229;26;20437;-76
2024/04/13 02:48:19;;;;;;;11.82;4.18;;;;;;;8.01;78.63;101609.91;2732698;26;20038;-76
2024/04/13 02:49:33;;;;;;;9.52;6.00;;;;;;;8.02;78.68;101610.78;2730377;26;19996;-76
2024/04/13 02:50:47;;;;;;;5.15;4.20;;;;;;;8.03;78.49;101616.03;2725925;26;20072;-75
2024/04/13 02:52:00;;;;;;;4.97;4.30;;;;;;;8.03;78.79;101618.63;2737771;26;20017;-77
2024/04/13 02:53:13;;;;;;;6.15;5.63;;;;;;;8.04;78.50;101609.97;2730543;26;20381;-77
2024/04/13 02:54:27;;;;;;;5.97;4.93;;;;;;;8.03;78.45;101610.81;2725108;26;20460;-76
2024/04/13 02:55:40;;;;;;;4.38;3.97;;;;;;;8.01;79.08;101612.53;2724822;26;20332;-76
2024/04/13 02:56:53;;;;;;;6.43;4.70;;;;;;;8.00;79.05;101612.47;2738987;26;19996;-77
2024/04/13 02:58:06;;;;;;;5.30;4.50;;;;;;;7.99;78.83;101610.75;2729121;26;20086;-76
2024/04/13 02:59:20;;;;;;;5.05;4.10;;;;;;;7.97;78.96;101613.31;2733962;26;20003;-76
2024/04/13 03:00:33;;;;;;;6.38;5.15;;;;;;;7.98;78.94;101611.59;2736750;26;19999;-76
2024/04/13 03:01:46;;;;;;;6.90;4.18;;;;;;;7.98;78.93;101606.41;2727937;26;20522;-77
2024/04/13 03:03:00;;;;;;;6.32;5.00;;;;;;;7.97;78.87;101602.91;2738759;26;20320;-77
2024/04/13 03:04:14;;;;;;;8.98;4.30;;;;;;;7.98;78.62;101609.00;2724387;26;20009;-76
2024/04/13 03:05:27;;;;;;;6.82;4.55;;;;;;;7.94;78.88;101596.78;2735669;26;20002;-77
2024/04/13 03:06:40;;;;;;;5.97;5.07;;;;;;;7.92;79.24;101593.28;2729659;26;20011;-76
2024/04/13 03:07:53;;;;;;;5.70;4.25;;;;;;;7.90;78.86;101595.88;2737769;26;20103;-77
2024/04/13 03:09:07;;;;;;;6.65;3.85;;;;;;;7.89;79.27;101601.03;2729957;26;20002;-77
2024/04/13 03:10:21;;;;;;;4.80;4.05;;;;;;;7.88;79.17;101601.88;2734018;26;20443;-76
2024/04/13 03:11:34;;;;;;;5.75;4.63;;;;;;;7.88;78.83;101601.88;2737001;26;20006;-75
2024/04/13 03:12:47;;;;;;;10.13;4.90;;;;;;;7.86;78.58;101600.13;2728182;26;20404;-76
2024/04/13 03:14:00;;;;;;;6.28;4.78;;;;;;;7.84;79.11;101607.00;2739214;26;19999;-76
2024/04/13 03:15:14;;;;;;;4.93;4.40;;;;;;;7.84;79.12;101598.34;2732292;26;20031;-76
2024/04/13 03:16:27;;;;;;;7.65;5.15;;;;;;;7.82;79.03;101606.13;2731680;26;20011;-76
2024/04/13 03:17:40;;;;;;;5.80;3.95;;;;;;;7.82;79.27;101606.13;2737666;26;19991;-76
2024/04/13 03:18:54;;;;;;;6.15;4.28;;;;;;;7.81;79.19;101611.28;2727804;26;20011;-76
2024/04/13 03:20:08;;;;;;;5.45;4.53;;;;;;;7.75;78.83;101609.47;2737204;26;19996;-76
2024/04/13 03:21:21;;;;;;;9.30;4.53;;;;;;;7.75;78.79;101616.38;2733063;26;20059;-75
2024/04/13 03:22:35;;;;;;;6.10;5.50;;;;;;;7.74;78.98;101610.28;2718086;26;20058;-76
2024/04/13 03:23:48;;;;;;;7.72;3.95;;;;;;;7.70;78.85;101608.50;2711479;26;19992;-77
2024/04/13 03:25:01;;;;;;;8.43;5.30;;;;;;;7.71;79.15;101606.78;2723804;26;20010;-77
2024/04/13 03:26:14;;;;;;;4.47;4.05;;;;;;;7.72;78.94;101606.81;2731041;26;20075;-76
2024/04/13 03:27:27;;;;;;;6.82;4.93;;;;;;;7.71;79.10;101602.44;2731011;26;19992;-77
2024/04/13 03:28:41;;;;;;;8.55;4.78;;;;;;;7.71;79.22;101607.63;2739079;26;20006;-76
2024/04/13 03:29:54;;;;;;;5.50;4.40;;;;;;;7.72;78.99;101601.63;2726986;26;19999;-77
2024/04/13 03:31:07;;;;;;;8.00;4.75;;;;;;;7.71;79.16;101602.44;2736907;26;20019;-77
2024/04/13 03:32:21;;;;;;;6.40;4.53;;;;;;;7.73;79.44;101598.16;2732122;26;20060;-76
2024/04/13 03:33:34;;;;;;;4.80;4.40;;;;;;;7.72;79.27;101596.41;2718003;26;20101;-76
2024/04/13 03:34:47;;;;;;;7.18;5.00;;;;;;;7.69;78.93;101604.13;2712093;26;20483;-76
2024/04/13 03:36:02;;;;;;;6.07;4.57;;;;;;;7.66;79.14;101609.28;2738294;26;19998;-74
2024/04/13 03:37:15;;;;;;;6.18;4.85;;;;;;;7.63;79.03;101609.22;2730352;26;20103;-76
2024/04/13 03:38:28;;;;;;;4.90;4.50;;;;;;;7.64;79.47;101608.38;2731114;26;20007;-76
2024/04/13 03:39:41;;;;;;;6.88;4.90;;;;;;;7.66;78.95;101601.47;2738016;26;20001;-76
2024/04/13 03:40:59;;;;;;;6.50;5.70;;;;;;;7.69;79.11;101596.34;2724494;26;19999;-75
2024/04/13 03:42:12;;;;;;;8.75;4.22;;;;;;;7.70;79.36;101592.03;2713163;26;20003;-77
2024/04/13 03:43:26;;;;;;;7.13;4.78;;;;;;;7.70;79.00;101589.44;2733528;26;20017;-76
2024/04/13 03:44:39;;;;;;;5.93;4.63;;;;;;;7.70;79.16;101598.09;2711149;26;20443;-75
2024/04/13 03:45:53;;;;;;;5.60;4.90;;;;;;;7.68;79.24;101592.00;2723609;26;20455;-77
2024/04/13 03:47:07;;;;;;;4.72;4.05;;;;;;;7.69;78.94;101590.28;2736109;26;20007;-77
2024/04/13 03:48:21;;;;;;;10.13;4.60;;;;;;;7.68;78.80;101597.19;2723210;26;20054;-77
2024/04/13 03:49:34;;;;;;;5.60;4.18;;;;;;;7.67;79.39;101595.47;2735277;26;20022;-77
2024/04/13 03:50:47;;;;;;;4.80;4.32;;;;;;;7.67;78.90;101597.16;2727142;26;20014;-76
2024/04/13 03:52:01;;;;;;;5.28;4.20;;;;;;;7.63;78.96;101598.84;2738046;26;20091;-75
2024/04/13 03:53:15;;;;;;;4.47;4.15;;;;;;;7.60;78.91;101596.19;2719301;26;20002;-76
2024/04/13 03:54:28;;;;;;;6.45;5.07;;;;;;;7.58;79.45;101595.28;2723551;26;20364;-75
2024/04/13 03:55:41;;;;;;;8.65;4.95;;;;;;;7.57;79.12;101590.94;2736997;26;20033;-75
2024/04/13 03:56:54;;;;;;;6.05;5.15;;;;;;;7.55;79.24;101596.09;2726559;26;20026;-77
2024/04/13 03:58:08;;;;;;;4.90;4.50;;;;;;;7.53;79.24;101591.72;2737399;26;20000;-77
2024/04/13 03:59:21;;;;;;;5.72;5.22;;;;;;;7.50;78.59;101589.94;2732972;26;19995;-75
2024/04/13 04:00:34;;;;;;;5.82;4.70;;;;;;;7.49;79.44;101590.78;2730213;26;20451;-77
2024/04/13 04:01:48;;;;;;;17.20;5.35;;;;;;;7.50;79.19;101596.84;2723989;26;20011;-77
2024/04/13 04:03:01;;;;;;;6.30;5.72;;;;;;;7.49;79.02;101595.13;2724964;26;20422;-77
2024/04/13 04:04:15;;;;;;;5.10;4.53;;;;;;;7.48;79.29;101602.00;2730888;26;20013;-76
2024/04/13 04:05:28;;;;;;;5.45;4.97;;;;;;;7.48;79.16;101593.34;2732341;26;20014;-75
2024/04/13 04:06:43;;;;;;;6.13;5.57;;;;;;;7.47;79.15;101595.06;2737233;26;20003;-75
2024/04/13 04:07:56;;;;;;;8.85;5.68;;;;;;;7.47;79.26;101591.59;2726265;26;20024;-75
2024/04/13 04:09:10;;;;;;;7.97;7.18;;;;;;;7.46;79.19;101600.22;2737150;26;20003;-74
2024/04/13 04:10:24;;;;;;;9.90;7.70;;;;;;;7.42;79.01;101599.31;2733605;26;20002;-74
2024/04/13 04:11:37;;;;;;;8.57;5.15;;;;;;;7.41;79.06;101590.66;2728765;26;20031;-74
2024/04/13 04:12:50;;;;;;;7.80;6.25;;;;;;;7.40;78.86;101595.78;2738472;26;20003;-75
2024/04/13 04:14:05;;;;;;;13.68;5.93;;;;;;;7.39;79.14;101594.94;2722926;26;19999;-74
2024/04/13 04:15:18;;;;;;;7.38;6.68;;;;;;;7.39;79.19;101597.53;2731977;26;20044;-75
2024/04/13 04:16:31;;;;;;;10.05;7.57;;;;;;;7.39;79.36;101594.94;2730555;26;20003;-73
2024/04/13 04:17:45;;;;;;;11.05;7.88;;;;;;;7.38;78.96;101600.97;2724107;26;19999;-75
2024/04/13 04:18:58;;;;;;;8.85;7.90;;;;;;;7.38;78.91;101595.78;2739143;26;20003;-74
2024/04/13 04:20:13;;;;;;;12.25;7.30;;;;;;;7.37;79.34;101600.94;2729908;26;20007;-75
2024/04/13 04:21:26;;;;;;;9.57;7.03;;;;;;;7.35;78.85;101595.69;2733276;26;20015;-75
2024/04/13 04:22:39;;;;;;;12.15;8.23;;;;;;;7.33;78.56;101589.63;2737433;26;20014;-75
2024/04/13 04:23:53;;;;;;;7.80;6.45;;;;;;;7.31;79.10;101591.31;2725780;26;20035;-75
2024/04/13 04:25:07;;;;;;;9.90;6.88;;;;;;;7.31;79.19;101599.09;2737472;26;20338;-74
2024/04/13 04:26:20;;;;;;;6.22;5.35;;;;;;;7.30;78.83;101594.72;2732535;26;20011;-75
2024/04/13 04:27:34;;;;;;;8.02;5.97;;;;;;;7.29;79.02;101590.41;2729394;26;20003;-73
2024/04/13 04:28:47;;;;;;;6.93;6.25;;;;;;;7.30;79.49;101589.53;2738256;26;20702;-74
2024/04/13 04:30:00;;;;;;;8.93;6.50;;;;;;;7.33;79.17;101592.22;2727590;26;20015;-75
2024/04/13 04:31:13;;;;;;;9.30;6.88;;;;;;;7.36;79.06;101591.41;2717208;26;20008;-75
2024/04/13 04:32:26;;;;;;;7.60;6.45;;;;;;;7.38;79.43;101588.00;2702764;26;20008;-75
2024/04/13 04:33:40;;;;;;;6.30;5.68;;;;;;;7.39;78.85;101586.25;2723222;26;20128;-75
2024/04/13 04:34:53;;;;;;;7.88;5.05;;;;;;;7.38;78.97;101585.41;2726448;26;19999;-74
2024/04/13 04:36:08;;;;;;;6.85;5.95;;;;;;;7.39;78.95;101592.31;2737736;26;19998;-75
2024/04/13 04:37:22;;;;;;;5.30;4.80;;;;;;;7.38;79.25;101588.00;2732350;26;19999;-75
2024/04/13 04:38:35;;;;;;;7.85;4.97;;;;;;;7.36;79.01;101586.22;2712094;26;20446;-75
2024/04/13 04:39:48;;;;;;;5.95;5.00;;;;;;;7.35;79.35;101589.63;2726017;26;19995;-74
2024/04/13 04:41:01;;;;;;;5.10;4.57;;;;;;;7.32;79.00;101590.44;2727408;26;20004;-74
2024/04/13 04:42:15;;;;;;;4.53;4.05;;;;;;;7.30;79.24;101591.25;2736178;26;20487;-74
2024/04/13 04:43:29;;;;;;;5.28;4.72;;;;;;;7.28;79.39;101593.84;2733593;26;19999;-75
2024/04/13 04:44:42;;;;;;;5.38;3.53;;;;;;;7.25;79.32;101591.16;2733745;26;20003;-75
2024/04/13 04:45:55;;;;;;;8.95;4.78;;;;;;;7.26;79.41;101589.47;2727241;26;20010;-75
2024/04/13 04:47:08;;;;;;;4.53;4.10;;;;;;;7.27;79.11;101599.88;2736580;26;19999;-73
2024/04/13 04:48:21;;;;;;;5.30;4.80;;;;;;;7.27;79.66;101594.66;2730704;26;20030;-75
2024/04/13 04:49:35;;;;;;;4.82;4.32;;;;;;;7.25;79.58;101593.75;2731341;26;20023;-74
2024/04/13 04:50:56;;;;;;;5.07;4.55;;;;;;;7.25;79.76;101596.34;2738823;26;20340;-74
2024/04/13 04:52:09;;;;;;;30.45;6.53;;;;;;;7.24;79.61;101597.22;2736550;26;20026;-75
2024/04/13 04:53:25;;;;;;;6.95;5.38;;;;;;;7.24;79.53;101597.22;2724163;26;20014;-73
2024/04/13 04:54:39;;;;;;;11.00;5.85;;;;;;;7.24;79.70;101594.63;2735227;26;19999;-75
2024/04/13 04:55:53;;;;;;;6.60;5.40;;;;;;;7.24;79.11;101592.03;2725701;26;20075;-74
2024/04/13 04:57:06;;;;;;;5.82;5.07;;;;;;;7.26;79.37;101602.44;2725969;26;20002;-75
2024/04/13 04:58:19;;;;;;;7.80;5.50;;;;;;;7.26;79.53;101594.66;2730233;26;20049;-74
2024/04/13 04:59:32;;;;;;;5.25;4.30;;;;;;;7.26;79.27;101598.13;2731589;26;20003;-75
2024/04/13 05:00:45;;;;;;;6.07;5.47;;;;;;;7.27;79.39;101591.22;2724432;26;19999;-74
2024/04/13 05:01:59;;;;;;;9.68;5.00;;;;;;;7.26;79.41;101592.06;2739131;26;20003;-74
2024/04/13 05:03:12;;;;;;;6.20;5.28;;;;;;;7.24;79.33;101592.03;2728350;26;20050;-75
2024/04/13 05:04:26;;;;;;;7.57;4.70;;;;;;;7.21;78.81;101591.97;2732371;26;20000;-75
2024/04/13 05:05:40;;;;;;;6.80;5.25;;;;;;;7.19;79.18;101598.84;2735084;26;20018;-75
2024/04/13 05:06:54;;;;;;;9.10;4.93;;;;;;;7.18;78.80;101602.28;2723581;26;20000;-75
2024/04/13 05:08:07;;;;;;;8.65;4.93;;;;;;;7.20;79.23;101600.56;2736496;26;20079;-74
2024/04/13 05:09:20;;;;;;;9.05;7.03;;;;;;;7.22;79.03;101598.91;2730656;26;20430;-74
2024/04/13 05:10:34;;;;;;;6.45;5.13;;;;;;;7.23;79.34;101592.88;2730707;26;20004;-74
2024/04/13 05:11:48;;;;;;;12.30;4.45;;;;;;;7.26;79.46;101594.66;2724356;26;19999;-74
2024/04/13 05:13:02;;;;;;;5.20;4.70;;;;;;;7.27;79.52;101594.66;2722732;26;20010;-73
2024/04/13 05:14:19;;;;;;;5.53;5.03;;;;;;;7.28;79.11;101592.94;2729243;26;20015;-74
2024/04/13 05:15:33;;;;;;;6.00;4.93;;;;;;;7.27;78.99;101592.06;2731334;26;19999;-75
2024/04/13 05:16:47;;;;;;;7.88;4.85;;;;;;;7.29;79.43;101589.53;2737038;26;20061;-74
2024/04/13 05:18:02;;;;;;;5.95;4.50;;;;;;;7.31;79.53;101596.50;2726381;26;20088;-75
2024/04/13 05:19:15;;;;;;;10.20;4.97;;;;;;;7.35;79.12;101595.69;2717189;26;20000;-74
2024/04/13 05:20:28;;;;;;;7.13;5.03;;;;;;;7.39;79.10;101594.94;2720249;26;20053;-75
2024/04/13 05:21:42;;;;;;;8.57;4.32;;;;;;;7.45;79.05;101595.88;2729424;26;20000;-75
2024/04/13 05:22:55;;;;;;;4.93;4.45;;;;;;;7.47;79.01;101595.06;2738811;26;19999;-74
2024/04/13 05:24:08;;;;;;;6.85;4.15;;;;;;;7.49;79.00;101606.38;2727838;26;20004;-75
2024/04/13 05:25:21;;;;;;;5.90;4.53;;;;;;;7.46;78.53;101603.72;2734535;26;20098;-74
2024/04/13 05:26:35;;;;;;;4.93;4.53;;;;;;;7.47;79.35;101610.66;2723953;26;20067;-74
2024/04/13 05:27:48;;;;;;;5.60;4.07;;;;;;;7.50;78.72;101605.50;2728575;26;19995;-75
2024/04/13 05:29:03;;;;;;;6.63;3.97;;;;;;;7.60;78.84;101609.16;2726209;26;20004;-75
2024/04/13 05:30:16;;;;;;;7.00;4.78;;;;;;;7.66;79.04;101604.06;2737144;26;20014;-75
2024/04/13 05:31:29;;;;;;;9.45;3.60;;;;;;;7.74;78.93;101610.28;2734756;26;20010;-75
2024/04/13 05:32:43;;;;;;;4.57;4.03;;;;;;;7.82;78.81;101600.94;2730542;26;20019;-75
2024/04/13 05:33:56;;;;;;;5.30;4.20;;;;;;;7.96;78.69;101618.50;2739659;26;19999;-75
2024/04/13 05:35:09;;;;;;;4.95;4.53;;;;;;;8.11;78.52;101612.69;2729690;26;19999;-75
2024/04/13 05:36:23;;;;;;;6.28;5.68;;;;;;;8.24;78.67;101618.09;2734594;26;20437;-75
2024/04/13 05:37:36;;;;;;;4.10;3.53;;;;;;;8.38;78.18;101614.84;2738084;26;20075;-75
2024/04/13 05:38:50;;;;;;;4.82;3.67;;;;;;;8.54;77.81;101627.25;2729950;26;20078;-75
2024/04/13 05:40:04;;;;;;;4.70;3.58;;;;;;;8.62;77.30;101623.09;2739063;26;19998;-75
2024/04/13 05:41:17;;;;;;;4.28;3.97;;;;;;;8.66;77.34;101618.78;2731472;26;20067;-75
2024/04/13 05:42:31;;;;;;;3.97;3.65;;;;;;;8.73;77.15;101628.44;2734396;26;20000;-75
2024/04/13 05:43:44;;;;;;;4.25;3.80;;;;;;;8.86;76.81;101613.88;2737808;26;20029;-75
2024/04/13 05:44:58;;;;;;;12.10;5.45;;;;;;;9.00;76.64;101619.25;2727643;26;20000;-75
2024/04/13 05:46:11;;;;;;;4.15;3.75;;;;;;;9.11;76.34;101621.16;2738284;26;20048;-75